Terminal Aerodrome Forecast
Issued by NWS Wilmington, OH

Current Version | Previous Version | Text Only | Print | Product List | Glossary Off
Versions: 1 2 3 4 5 6 7 8 9 10 11 12 13 14 15 16 17 18 19 20 21 22 23 24 25 26 27 28 29 30

000
FTUS41 KILN 151500 AAA
TAFCVG
TAF AMD
KCVG 151501Z 1515/1618 14012KT P6SM OVC015
     FM151900 15009KT P6SM SCT025 OVC250
     FM152300 15008KT P6SM -RA SCT025 OVC060
      TEMPO 1600/1604 BKN025
     FM160400 17007KT P6SM VCSH OVC020
     FM160700 17008KT 5SM BR VCSH OVC011=

USA.gov is the U.S. government's official web portal to all federal, state and local government web resources and services.